sensor_id;sensor_type;location;lat;lon;timestamp;P1;durP1;ratioP1;P2;durP2;ratioP2
65189;SDS011;51777;53.570;9.984;2023-03-12T00:00:29;6.57;;;3.00;;
65189;SDS011;51777;53.570;9.984;2023-03-12T00:02:55;6.25;;;3.83;;
65189;SDS011;51777;53.570;9.984;2023-03-12T00:05:21;8.15;;;4.78;;
65189;SDS011;51777;53.570;9.984;2023-03-12T00:07:47;10.40;;;4.97;;
65189;SDS011;51777;53.570;9.984;2023-03-12T00:10:13;3.47;;;2.63;;
65189;SDS011;51777;53.570;9.984;2023-03-12T00:12:38;1.17;;;1.17;;
65189;SDS011;51777;53.570;9.984;2023-03-12T00:15:04;2.90;;;2.45;;
65189;SDS011;51777;53.570;9.984;2023-03-12T00:17:30;6.45;;;4.78;;
65189;SDS011;51777;53.570;9.984;2023-03-12T00:19:56;8.15;;;4.97;;
65189;SDS011;51777;53.570;9.984;2023-03-12T00:22:21;8.68;;;4.00;;
65189;SDS011;51777;53.570;9.984;2023-03-12T00:24:59;10.77;;;4.78;;
65189;SDS011;51777;53.570;9.984;2023-03-12T00:27:24;8.07;;;4.90;;
65189;SDS011;51777;53.570;9.984;2023-03-12T00:29:51;8.50;;;4.55;;
65189;SDS011;51777;53.570;9.984;2023-03-12T00:32:17;11.85;;;4.32;;
65189;SDS011;51777;53.570;9.984;2023-03-12T00:34:42;7.15;;;5.10;;
65189;SDS011;51777;53.570;9.984;2023-03-12T00:37:08;8.48;;;5.22;;
65189;SDS011;51777;53.570;9.984;2023-03-12T00:39:33;3.55;;;2.72;;
65189;SDS011;51777;53.570;9.984;2023-03-12T00:41:59;3.95;;;3.08;;
65189;SDS011;51777;53.570;9.984;2023-03-12T00:44:24;9.23;;;4.93;;
65189;SDS011;51777;53.570;9.984;2023-03-12T00:46:50;2.95;;;2.65;;
65189;SDS011;51777;53.570;9.984;2023-03-12T00:49:15;10.95;;;6.25;;
65189;SDS011;51777;53.570;9.984;2023-03-12T00:51:41;12.40;;;6.70;;
65189;SDS011;51777;53.570;9.984;2023-03-12T00:54:06;11.23;;;6.18;;
65189;SDS011;51777;53.570;9.984;2023-03-12T00:56:32;10.20;;;6.85;;
65189;SDS011;51777;53.570;9.984;2023-03-12T00:58:57;13.65;;;6.70;;
65189;SDS011;51777;53.570;9.984;2023-03-12T01:01:22;6.38;;;4.68;;
65189;SDS011;51777;53.570;9.984;2023-03-12T01:03:49;7.65;;;3.80;;
65189;SDS011;51777;53.570;9.984;2023-03-12T01:06:16;11.40;;;6.18;;
65189;SDS011;51777;53.570;9.984;2023-03-12T01:08:46;8.23;;;5.60;;
65189;SDS011;51777;53.570;9.984;2023-03-12T01:11:12;8.27;;;4.63;;
65189;SDS011;51777;53.570;9.984;2023-03-12T01:13:38;10.07;;;7.25;;
65189;SDS011;51777;53.570;9.984;2023-03-12T01:16:04;4.03;;;3.47;;
65189;SDS011;51777;53.570;9.984;2023-03-12T01:18:29;6.20;;;3.00;;
65189;SDS011;51777;53.570;9.984;2023-03-12T01:20:55;13.27;;;7.47;;
65189;SDS011;51777;53.570;9.984;2023-03-12T01:23:20;12.73;;;7.25;;
65189;SDS011;51777;53.570;9.984;2023-03-12T01:25:46;6.35;;;4.82;;
65189;SDS011;51777;53.570;9.984;2023-03-12T01:28:11;13.30;;;7.30;;
65189;SDS011;51777;53.570;9.984;2023-03-12T01:30:37;13.30;;;6.45;;
65189;SDS011;51777;53.570;9.984;2023-03-12T01:33:03;7.97;;;5.13;;
65189;SDS011;51777;53.570;9.984;2023-03-12T01:35:28;12.93;;;6.65;;
65189;SDS011;51777;53.570;9.984;2023-03-12T01:37:54;9.75;;;7.10;;
65189;SDS011;51777;53.570;9.984;2023-03-12T01:40:20;11.88;;;6.82;;
65189;SDS011;51777;53.570;9.984;2023-03-12T01:42:53;13.88;;;7.63;;
65189;SDS011;51777;53.570;9.984;2023-03-12T01:48:17;12.07;;;7.07;;
65189;SDS011;51777;53.570;9.984;2023-03-12T01:50:44;10.82;;;7.90;;
65189;SDS011;51777;53.570;9.984;2023-03-12T01:53:10;10.90;;;7.88;;
65189;SDS011;51777;53.570;9.984;2023-03-12T01:55:36;9.57;;;7.55;;
65189;SDS011;51777;53.570;9.984;2023-03-12T01:58:01;7.68;;;5.75;;
65189;SDS011;51777;53.570;9.984;2023-03-12T02:00:26;7.43;;;5.47;;
65189;SDS011;51777;53.570;9.984;2023-03-12T02:02:53;13.98;;;8.50;;
65189;SDS011;51777;53.570;9.984;2023-03-12T02:07:58;4.93;;;3.75;;
65189;SDS011;51777;53.570;9.984;2023-03-12T02:10:24;13.35;;;8.00;;
65189;SDS011;51777;53.570;9.984;2023-03-12T02:12:50;14.43;;;7.80;;
65189;SDS011;51777;53.570;9.984;2023-03-12T02:15:16;6.50;;;3.92;;
65189;SDS011;51777;53.570;9.984;2023-03-12T02:17:41;5.25;;;3.20;;
65189;SDS011;51777;53.570;9.984;2023-03-12T02:25:37;14.13;;;8.73;;
65189;SDS011;51777;53.570;9.984;2023-03-12T02:28:11;17.27;;;8.48;;
65189;SDS011;51777;53.570;9.984;2023-03-12T02:30:43;13.55;;;6.43;;
65189;SDS011;51777;53.570;9.984;2023-03-12T02:35:44;10.73;;;4.78;;
65189;SDS011;51777;53.570;9.984;2023-03-12T02:43:35;12.35;;;5.45;;
65189;SDS011;51777;53.570;9.984;2023-03-12T02:46:01;12.63;;;5.88;;
65189;SDS011;51777;53.570;9.984;2023-03-12T02:48:26;12.40;;;5.93;;
65189;SDS011;51777;53.570;9.984;2023-03-12T02:50:52;10.68;;;4.45;;
65189;SDS011;51777;53.570;9.984;2023-03-12T02:53:17;8.88;;;5.53;;
65189;SDS011;51777;53.570;9.984;2023-03-12T02:55:43;10.10;;;4.88;;
65189;SDS011;51777;53.570;9.984;2023-03-12T02:58:08;10.27;;;4.60;;
65189;SDS011;51777;53.570;9.984;2023-03-12T03:00:34;12.68;;;5.85;;
65189;SDS011;51777;53.570;9.984;2023-03-12T03:03:00;12.65;;;6.32;;
65189;SDS011;51777;53.570;9.984;2023-03-12T03:05:26;11.68;;;6.35;;
65189;SDS011;51777;53.570;9.984;2023-03-12T03:07:51;13.30;;;6.45;;
65189;SDS011;51777;53.570;9.984;2023-03-12T03:10:17;11.48;;;6.47;;
65189;SDS011;51777;53.570;9.984;2023-03-12T03:12:43;9.70;;;6.07;;
65189;SDS011;51777;53.570;9.984;2023-03-12T03:15:08;12.20;;;6.03;;
65189;SDS011;51777;53.570;9.984;2023-03-12T03:17:35;9.80;;;5.65;;
65189;SDS011;51777;53.570;9.984;2023-03-12T03:20:00;10.63;;;5.75;;
65189;SDS011;51777;53.570;9.984;2023-03-12T03:22:26;11.65;;;5.68;;
65189;SDS011;51777;53.570;9.984;2023-03-12T03:24:52;8.20;;;5.60;;
65189;SDS011;51777;53.570;9.984;2023-03-12T03:27:19;11.02;;;6.20;;
65189;SDS011;51777;53.570;9.984;2023-03-12T03:29:45;12.73;;;5.82;;
65189;SDS011;51777;53.570;9.984;2023-03-12T03:32:10;9.27;;;6.03;;
65189;SDS011;51777;53.570;9.984;2023-03-12T03:34:36;8.70;;;5.85;;
65189;SDS011;51777;53.570;9.984;2023-03-12T03:37:03;8.40;;;6.07;;
65189;SDS011;51777;53.570;9.984;2023-03-12T03:39:28;13.45;;;6.43;;
65189;SDS011;51777;53.570;9.984;2023-03-12T03:41:54;12.85;;;6.05;;
65189;SDS011;51777;53.570;9.984;2023-03-12T03:44:19;12.15;;;6.50;;
65189;SDS011;51777;53.570;9.984;2023-03-12T03:46:47;14.77;;;6.22;;
65189;SDS011;51777;53.570;9.984;2023-03-12T03:49:13;14.40;;;5.90;;
65189;SDS011;51777;53.570;9.984;2023-03-12T03:51:39;10.45;;;5.78;;
65189;SDS011;51777;53.570;9.984;2023-03-12T03:54:08;11.68;;;5.70;;
65189;SDS011;51777;53.570;9.984;2023-03-12T03:56:34;12.30;;;5.60;;
65189;SDS011;51777;53.570;9.984;2023-03-12T03:58:59;10.63;;;4.13;;
65189;SDS011;51777;53.570;9.984;2023-03-12T04:01:26;13.73;;;6.00;;
65189;SDS011;51777;53.570;9.984;2023-03-12T04:03:51;11.18;;;5.68;;
65189;SDS011;51777;53.570;9.984;2023-03-12T04:06:17;7.95;;;4.93;;
65189;SDS011;51777;53.570;9.984;2023-03-12T04:08:42;11.70;;;5.93;;
65189;SDS011;51777;53.570;9.984;2023-03-12T04:11:08;10.60;;;5.40;;
65189;SDS011;51777;53.570;9.984;2023-03-12T04:13:36;10.00;;;4.72;;
65189;SDS011;51777;53.570;9.984;2023-03-12T04:16:02;8.55;;;5.57;;
65189;SDS011;51777;53.570;9.984;2023-03-12T04:18:28;12.48;;;5.50;;
65189;SDS011;51777;53.570;9.984;2023-03-12T04:20:53;8.85;;;5.78;;
65189;SDS011;51777;53.570;9.984;2023-03-12T04:23:19;13.60;;;6.18;;
65189;SDS011;51777;53.570;9.984;2023-03-12T04:25:44;13.27;;;6.35;;
65189;SDS011;51777;53.570;9.984;2023-03-12T04:28:10;10.40;;;6.85;;
65189;SDS011;51777;53.570;9.984;2023-03-12T04:30:35;12.77;;;7.78;;
65189;SDS011;51777;53.570;9.984;2023-03-12T04:33:02;11.18;;;6.50;;
65189;SDS011;51777;53.570;9.984;2023-03-12T04:35:29;16.40;;;7.40;;
65189;SDS011;51777;53.570;9.984;2023-03-12T04:37:54;16.23;;;6.53;;
65189;SDS011;51777;53.570;9.984;2023-03-12T04:40:20;10.43;;;6.70;;
65189;SDS011;51777;53.570;9.984;2023-03-12T04:42:45;12.15;;;6.25;;
65189;SDS011;51777;53.570;9.984;2023-03-12T04:45:11;13.38;;;5.53;;
65189;SDS011;51777;53.570;9.984;2023-03-12T04:47:37;10.77;;;5.97;;
65189;SDS011;51777;53.570;9.984;2023-03-12T04:50:03;9.85;;;5.75;;
65189;SDS011;51777;53.570;9.984;2023-03-12T04:52:29;10.80;;;5.78;;
65189;SDS011;51777;53.570;9.984;2023-03-12T04:54:54;13.52;;;5.95;;
65189;SDS011;51777;53.570;9.984;2023-03-12T04:57:19;10.95;;;6.50;;
65189;SDS011;51777;53.570;9.984;2023-03-12T04:59:45;9.27;;;5.97;;
65189;SDS011;51777;53.570;9.984;2023-03-12T05:02:11;11.60;;;5.78;;
65189;SDS011;51777;53.570;9.984;2023-03-12T05:04:37;13.02;;;5.85;;
65189;SDS011;51777;53.570;9.984;2023-03-12T05:07:02;11.68;;;6.45;;
65189;SDS011;51777;53.570;9.984;2023-03-12T05:09:28;12.77;;;6.05;;
65189;SDS011;51777;53.570;9.984;2023-03-12T05:11:54;10.25;;;6.53;;
65189;SDS011;51777;53.570;9.984;2023-03-12T05:14:19;10.13;;;6.45;;
65189;SDS011;51777;53.570;9.984;2023-03-12T05:16:45;12.60;;;6.80;;
65189;SDS011;51777;53.570;9.984;2023-03-12T05:19:10;10.38;;;6.05;;
65189;SDS011;51777;53.570;9.984;2023-03-12T05:21:36;10.27;;;6.30;;
65189;SDS011;51777;53.570;9.984;2023-03-12T05:24:03;18.10;;;7.15;;
65189;SDS011;51777;53.570;9.984;2023-03-12T05:26:29;10.52;;;6.63;;
65189;SDS011;51777;53.570;9.984;2023-03-12T05:28:57;11.82;;;6.45;;
65189;SDS011;51777;53.570;9.984;2023-03-12T05:31:24;10.32;;;6.30;;
65189;SDS011;51777;53.570;9.984;2023-03-12T05:33:50;17.13;;;6.95;;
65189;SDS011;51777;53.570;9.984;2023-03-12T05:36:16;12.63;;;6.32;;
65189;SDS011;51777;53.570;9.984;2023-03-12T05:38:42;14.55;;;7.05;;
65189;SDS011;51777;53.570;9.984;2023-03-12T05:41:08;13.30;;;6.93;;
65189;SDS011;51777;53.570;9.984;2023-03-12T05:43:41;11.35;;;6.70;;
65189;SDS011;51777;53.570;9.984;2023-03-12T05:46:08;11.73;;;6.35;;
65189;SDS011;51777;53.570;9.984;2023-03-12T05:48:34;10.15;;;5.80;;
65189;SDS011;51777;53.570;9.984;2023-03-12T05:51:00;18.38;;;6.30;;
65189;SDS011;51777;53.570;9.984;2023-03-12T05:53:25;16.85;;;7.30;;
65189;SDS011;51777;53.570;9.984;2023-03-12T05:55:51;12.70;;;6.80;;
65189;SDS011;51777;53.570;9.984;2023-03-12T05:58:16;15.65;;;6.65;;
65189;SDS011;51777;53.570;9.984;2023-03-12T06:00:43;14.38;;;6.95;;
65189;SDS011;51777;53.570;9.984;2023-03-12T06:03:09;12.25;;;7.40;;
65189;SDS011;51777;53.570;9.984;2023-03-12T06:05:35;11.50;;;7.32;;
65189;SDS011;51777;53.570;9.984;2023-03-12T06:08:01;15.15;;;7.32;;
65189;SDS011;51777;53.570;9.984;2023-03-12T06:10:27;11.82;;;7.32;;
65189;SDS011;51777;53.570;9.984;2023-03-12T06:12:54;13.73;;;7.95;;
65189;SDS011;51777;53.570;9.984;2023-03-12T06:15:20;13.60;;;7.70;;
65189;SDS011;51777;53.570;9.984;2023-03-12T06:17:45;12.30;;;7.05;;
65189;SDS011;51777;53.570;9.984;2023-03-12T06:20:11;12.00;;;7.60;;
65189;SDS011;51777;53.570;9.984;2023-03-12T06:22:37;13.82;;;7.65;;
65189;SDS011;51777;53.570;9.984;2023-03-12T06:25:02;13.70;;;7.03;;
65189;SDS011;51777;53.570;9.984;2023-03-12T06:27:28;14.30;;;7.40;;
65189;SDS011;51777;53.570;9.984;2023-03-12T06:29:55;15.00;;;7.05;;
65189;SDS011;51777;53.570;9.984;2023-03-12T06:32:20;13.32;;;6.95;;
65189;SDS011;51777;53.570;9.984;2023-03-12T06:34:46;11.27;;;5.78;;
65189;SDS011;51777;53.570;9.984;2023-03-12T06:37:12;10.60;;;5.55;;
65189;SDS011;51777;53.570;9.984;2023-03-12T06:39:37;8.50;;;5.68;;
65189;SDS011;51777;53.570;9.984;2023-03-12T06:42:03;7.30;;;4.90;;
65189;SDS011;51777;53.570;9.984;2023-03-12T06:44:29;7.53;;;5.50;;
65189;SDS011;51777;53.570;9.984;2023-03-12T06:46:55;16.50;;;6.82;;
65189;SDS011;51777;53.570;9.984;2023-03-12T06:49:21;16.52;;;6.85;;
65189;SDS011;51777;53.570;9.984;2023-03-12T06:51:46;6.03;;;4.57;;
65189;SDS011;51777;53.570;9.984;2023-03-12T06:54:12;11.43;;;6.68;;
65189;SDS011;51777;53.570;9.984;2023-03-12T06:56:39;10.18;;;6.55;;
65189;SDS011;51777;53.570;9.984;2023-03-12T06:59:05;17.83;;;7.43;;
65189;SDS011;51777;53.570;9.984;2023-03-12T07:01:31;12.10;;;6.70;;
65189;SDS011;51777;53.570;9.984;2023-03-12T07:03:56;12.55;;;6.20;;
65189;SDS011;51777;53.570;9.984;2023-03-12T07:06:23;7.95;;;4.88;;
65189;SDS011;51777;53.570;9.984;2023-03-12T07:08:48;7.07;;;4.95;;
65189;SDS011;51777;53.570;9.984;2023-03-12T07:11:14;10.73;;;6.05;;
65189;SDS011;51777;53.570;9.984;2023-03-12T07:13:41;11.07;;;5.90;;
65189;SDS011;51777;53.570;9.984;2023-03-12T07:16:07;10.40;;;5.60;;
65189;SDS011;51777;53.570;9.984;2023-03-12T07:18:33;6.57;;;4.22;;
65189;SDS011;51777;53.570;9.984;2023-03-12T07:20:59;16.52;;;6.45;;
65189;SDS011;51777;53.570;9.984;2023-03-12T07:23:24;5.70;;;4.00;;
65189;SDS011;51777;53.570;9.984;2023-03-12T07:25:50;9.57;;;5.95;;
65189;SDS011;51777;53.570;9.984;2023-03-12T07:28:16;9.43;;;5.30;;
65189;SDS011;51777;53.570;9.984;2023-03-12T07:30:43;9.27;;;5.38;;
65189;SDS011;51777;53.570;9.984;2023-03-12T07:33:14;13.68;;;5.53;;
65189;SDS011;51777;53.570;9.984;2023-03-12T07:35:42;12.80;;;5.72;;
65189;SDS011;51777;53.570;9.984;2023-03-12T07:38:09;5.20;;;4.15;;
65189;SDS011;51777;53.570;9.984;2023-03-12T07:40:34;13.63;;;5.30;;
65189;SDS011;51777;53.570;9.984;2023-03-12T07:43:00;8.23;;;5.15;;
65189;SDS011;51777;53.570;9.984;2023-03-12T07:45:27;5.72;;;3.33;;
65189;SDS011;51777;53.570;9.984;2023-03-12T07:47:52;11.63;;;4.50;;
65189;SDS011;51777;53.570;9.984;2023-03-12T07:50:18;9.27;;;4.68;;
65189;SDS011;51777;53.570;9.984;2023-03-12T07:52:44;8.32;;;4.75;;
65189;SDS011;51777;53.570;9.984;2023-03-12T07:55:10;7.55;;;4.82;;
65189;SDS011;51777;53.570;9.984;2023-03-12T07:57:37;6.97;;;4.70;;
65189;SDS011;51777;53.570;9.984;2023-03-12T08:00:03;3.83;;;2.97;;
65189;SDS011;51777;53.570;9.984;2023-03-12T08:02:31;10.65;;;4.68;;
65189;SDS011;51777;53.570;9.984;2023-03-12T08:04:57;11.52;;;4.53;;
65189;SDS011;51777;53.570;9.984;2023-03-12T08:07:22;7.53;;;3.85;;
65189;SDS011;51777;53.570;9.984;2023-03-12T08:09:48;8.05;;;4.20;;
65189;SDS011;51777;53.570;9.984;2023-03-12T08:12:13;9.60;;;4.15;;
65189;SDS011;51777;53.570;9.984;2023-03-12T08:14:39;7.60;;;4.35;;
65189;SDS011;51777;53.570;9.984;2023-03-12T08:17:04;12.10;;;4.32;;
65189;SDS011;51777;53.570;9.984;2023-03-12T08:19:30;7.97;;;3.53;;
65189;SDS011;51777;53.570;9.984;2023-03-12T08:21:55;6.93;;;3.63;;
65189;SDS011;51777;53.570;9.984;2023-03-12T08:24:22;12.20;;;3.83;;
65189;SDS011;51777;53.570;9.984;2023-03-12T08:26:47;5.93;;;3.72;;
65189;SDS011;51777;53.570;9.984;2023-03-12T08:29:13;7.72;;;4.15;;
65189;SDS011;51777;53.570;9.984;2023-03-12T08:31:39;6.95;;;3.80;;
65189;SDS011;51777;53.570;9.984;2023-03-12T08:34:05;11.45;;;4.32;;
65189;SDS011;51777;53.570;9.984;2023-03-12T08:36:30;10.82;;;3.60;;
65189;SDS011;51777;53.570;9.984;2023-03-12T08:38:56;3.35;;;2.35;;
65189;SDS011;51777;53.570;9.984;2023-03-12T08:41:21;10.02;;;3.92;;
65189;SDS011;51777;53.570;9.984;2023-03-12T08:43:47;6.80;;;3.35;;
65189;SDS011;51777;53.570;9.984;2023-03-12T08:46:12;6.57;;;3.90;;
65189;SDS011;51777;53.570;9.984;2023-03-12T08:48:38;6.03;;;3.78;;
65189;SDS011;51777;53.570;9.984;2023-03-12T08:51:05;10.82;;;4.13;;
65189;SDS011;51777;53.570;9.984;2023-03-12T08:53:32;6.53;;;2.95;;
65189;SDS011;51777;53.570;9.984;2023-03-12T08:55:58;6.22;;;3.33;;
65189;SDS011;51777;53.570;9.984;2023-03-12T08:58:24;5.00;;;3.65;;
65189;SDS011;51777;53.570;9.984;2023-03-12T09:00:51;9.88;;;3.72;;
65189;SDS011;51777;53.570;9.984;2023-03-12T09:03:17;6.80;;;3.70;;
65189;SDS011;51777;53.570;9.984;2023-03-12T09:05:43;7.22;;;3.45;;
65189;SDS011;51777;53.570;9.984;2023-03-12T09:08:09;5.15;;;3.22;;
65189;SDS011;51777;53.570;9.984;2023-03-12T09:10:35;12.02;;;3.75;;
65189;SDS011;51777;53.570;9.984;2023-03-12T09:13:02;6.00;;;3.95;;
65189;SDS011;51777;53.570;9.984;2023-03-12T09:15:29;9.15;;;3.33;;
65189;SDS011;51777;53.570;9.984;2023-03-12T09:17:55;8.77;;;3.53;;
65189;SDS011;51777;53.570;9.984;2023-03-12T09:20:21;2.55;;;1.77;;
65189;SDS011;51777;53.570;9.984;2023-03-12T09:22:48;6.40;;;3.60;;
65189;SDS011;51777;53.570;9.984;2023-03-12T09:25:20;11.65;;;4.07;;
65189;SDS011;51777;53.570;9.984;2023-03-12T09:27:47;9.93;;;4.43;;
65189;SDS011;51777;53.570;9.984;2023-03-12T09:30:17;9.73;;;4.18;;
65189;SDS011;51777;53.570;9.984;2023-03-12T09:32:44;7.80;;;3.58;;
65189;SDS011;51777;53.570;9.984;2023-03-12T09:35:10;7.85;;;3.60;;
65189;SDS011;51777;53.570;9.984;2023-03-12T09:37:37;4.03;;;2.92;;
65189;SDS011;51777;53.570;9.984;2023-03-12T09:40:04;4.03;;;3.03;;
65189;SDS011;51777;53.570;9.984;2023-03-12T09:42:42;6.10;;;3.70;;
65189;SDS011;51777;53.570;9.984;2023-03-12T09:45:14;6.38;;;3.65;;
65189;SDS011;51777;53.570;9.984;2023-03-12T09:47:57;7.40;;;3.25;;
65189;SDS011;51777;53.570;9.984;2023-03-12T09:53:51;6.28;;;3.30;;
65189;SDS011;51777;53.570;9.984;2023-03-12T09:55:52;5.90;;;3.17;;
65189;SDS011;51777;53.570;9.984;2023-03-12T10:01:06;7.22;;;3.92;;
65189;SDS011;51777;53.570;9.984;2023-03-12T10:06:30;7.97;;;3.85;;
65189;SDS011;51777;53.570;9.984;2023-03-12T10:09:06;9.63;;;4.03;;
65189;SDS011;51777;53.570;9.984;2023-03-12T10:12:12;15.00;;;4.50;;
65189;SDS011;51777;53.570;9.984;2023-03-12T10:17:49;7.47;;;3.75;;
65189;SDS011;51777;53.570;9.984;2023-03-12T10:20:33;7.95;;;3.72;;
65189;SDS011;51777;53.570;9.984;2023-03-12T10:28:58;6.20;;;3.30;;
65189;SDS011;51777;53.570;9.984;2023-03-12T10:31:35;2.80;;;1.98;;
65189;SDS011;51777;53.570;9.984;2023-03-12T10:34:11;5.20;;;3.03;;
65189;SDS011;51777;53.570;9.984;2023-03-12T10:36:41;5.35;;;2.95;;
65189;SDS011;51777;53.570;9.984;2023-03-12T10:39:15;6.18;;;3.00;;
65189;SDS011;51777;53.570;9.984;2023-03-12T10:41:43;8.75;;;3.55;;
65189;SDS011;51777;53.570;9.984;2023-03-12T10:44:21;8.82;;;4.07;;
65189;SDS011;51777;53.570;9.984;2023-03-12T10:49:52;11.02;;;3.70;;
65189;SDS011;51777;53.570;9.984;2023-03-12T10:52:18;13.80;;;3.50;;
65189;SDS011;51777;53.570;9.984;2023-03-12T10:54:47;5.60;;;3.63;;
65189;SDS011;51777;53.570;9.984;2023-03-12T10:57:15;8.07;;;3.72;;
65189;SDS011;51777;53.570;9.984;2023-03-12T10:59:42;7.60;;;3.90;;
65189;SDS011;51777;53.570;9.984;2023-03-12T11:02:23;6.30;;;3.15;;
65189;SDS011;51777;53.570;9.984;2023-03-12T11:04:52;13.07;;;5.20;;
65189;SDS011;51777;53.570;9.984;2023-03-12T11:07:31;7.15;;;3.50;;
65189;SDS011;51777;53.570;9.984;2023-03-12T11:12:33;6.72;;;3.67;;
65189;SDS011;51777;53.570;9.984;2023-03-12T11:18:11;10.65;;;3.88;;
65189;SDS011;51777;53.570;9.984;2023-03-12T11:20:46;9.27;;;3.55;;
65189;SDS011;51777;53.570;9.984;2023-03-12T11:23:29;7.78;;;3.20;;
65189;SDS011;51777;53.570;9.984;2023-03-12T11:25:57;8.43;;;3.35;;
65189;SDS011;51777;53.570;9.984;2023-03-12T11:28:36;6.03;;;2.90;;
65189;SDS011;51777;53.570;9.984;2023-03-12T11:31:07;7.05;;;3.30;;
65189;SDS011;51777;53.570;9.984;2023-03-12T11:33:39;6.70;;;2.58;;
65189;SDS011;51777;53.570;9.984;2023-03-12T11:41:42;7.22;;;3.40;;
65189;SDS011;51777;53.570;9.984;2023-03-12T12:09:35;6.20;;;1.52;;
65189;SDS011;51777;53.570;9.984;2023-03-12T12:26:11;1.27;;;1.17;;
65189;SDS011;51777;53.570;9.984;2023-03-12T12:42:48;8.13;;;2.80;;
65189;SDS011;51777;53.570;9.984;2023-03-12T12:45:19;6.78;;;2.75;;
65189;SDS011;51777;53.570;9.984;2023-03-12T12:50:20;5.47;;;2.58;;
65189;SDS011;51777;53.570;9.984;2023-03-12T12:52:52;1.80;;;1.08;;
65189;SDS011;51777;53.570;9.984;2023-03-12T12:55:42;7.20;;;1.95;;
65189;SDS011;51777;53.570;9.984;2023-03-12T12:58:19;7.05;;;2.40;;
65189;SDS011;51777;53.570;9.984;2023-03-12T13:01:08;2.47;;;1.58;;
65189;SDS011;51777;53.570;9.984;2023-03-12T13:03:35;8.73;;;2.17;;
65189;SDS011;51777;53.570;9.984;2023-03-12T13:06:02;3.55;;;2.00;;
65189;SDS011;51777;53.570;9.984;2023-03-12T13:08:30;3.38;;;1.83;;
65189;SDS011;51777;53.570;9.984;2023-03-12T13:13:47;3.70;;;2.00;;
65189;SDS011;51777;53.570;9.984;2023-03-12T13:19:00;1.95;;;1.50;;
65189;SDS011;51777;53.570;9.984;2023-03-12T13:31:58;3.50;;;2.10;;
65189;SDS011;51777;53.570;9.984;2023-03-12T13:36:52;5.55;;;2.25;;
65189;SDS011;51777;53.570;9.984;2023-03-12T13:39:33;2.60;;;1.65;;
65189;SDS011;51777;53.570;9.984;2023-03-12T13:42:00;2.58;;;1.65;;
65189;SDS011;51777;53.570;9.984;2023-03-12T13:44:45;6.55;;;2.50;;
65189;SDS011;51777;53.570;9.984;2023-03-12T13:47:30;5.55;;;2.17;;
65189;SDS011;51777;53.570;9.984;2023-03-12T13:50:07;4.45;;;1.95;;
65189;SDS011;51777;53.570;9.984;2023-03-12T13:55:15;3.28;;;1.73;;
65189;SDS011;51777;53.570;9.984;2023-03-12T13:57:49;3.95;;;2.10;;
65189;SDS011;51777;53.570;9.984;2023-03-12T14:00:24;2.47;;;1.83;;
65189;SDS011;51777;53.570;9.984;2023-03-12T14:02:53;1.67;;;1.05;;
65189;SDS011;51777;53.570;9.984;2023-03-12T14:05:23;5.30;;;2.15;;
65189;SDS011;51777;53.570;9.984;2023-03-12T14:08:51;4.25;;;2.10;;
65189;SDS011;51777;53.570;9.984;2023-03-12T14:11:02;2.47;;;1.33;;
65189;SDS011;51777;53.570;9.984;2023-03-12T14:16:43;4.15;;;2.17;;
65189;SDS011;51777;53.570;9.984;2023-03-12T14:19:13;8.95;;;2.30;;
65189;SDS011;51777;53.570;9.984;2023-03-12T14:21:42;5.53;;;2.88;;
65189;SDS011;51777;53.570;9.984;2023-03-12T14:24:18;4.10;;;1.70;;
65189;SDS011;51777;53.570;9.984;2023-03-12T14:26:56;2.42;;;1.67;;
65189;SDS011;51777;53.570;9.984;2023-03-12T14:29:24;7.40;;;2.95;;
65189;SDS011;51777;53.570;9.984;2023-03-12T14:31:53;5.18;;;2.45;;
65189;SDS011;51777;53.570;9.984;2023-03-12T14:34:39;4.45;;;2.78;;
65189;SDS011;51777;53.570;9.984;2023-03-12T14:37:17;7.60;;;2.80;;
65189;SDS011;51777;53.570;9.984;2023-03-12T14:39:51;4.32;;;1.70;;
65189;SDS011;51777;53.570;9.984;2023-03-12T14:42:26;6.65;;;2.85;;
65189;SDS011;51777;53.570;9.984;2023-03-12T14:44:56;7.90;;;3.70;;
65189;SDS011;51777;53.570;9.984;2023-03-12T14:47:43;6.97;;;2.50;;
65189;SDS011;51777;53.570;9.984;2023-03-12T14:52:51;6.50;;;1.65;;
65189;SDS011;51777;53.570;9.984;2023-03-12T14:55:24;5.07;;;2.97;;
65189;SDS011;51777;53.570;9.984;2023-03-12T14:58:13;4.15;;;2.63;;
65189;SDS011;51777;53.570;9.984;2023-03-12T15:00:41;8.73;;;2.85;;
65189;SDS011;51777;53.570;9.984;2023-03-12T15:03:11;12.70;;;5.70;;
65189;SDS011;51777;53.570;9.984;2023-03-12T15:05:44;5.07;;;3.03;;
65189;SDS011;51777;53.570;9.984;2023-03-12T15:08:12;8.10;;;3.90;;
65189;SDS011;51777;53.570;9.984;2023-03-12T15:10:38;7.68;;;3.30;;
65189;SDS011;51777;53.570;9.984;2023-03-12T15:13:04;6.72;;;2.97;;
65189;SDS011;51777;53.570;9.984;2023-03-12T15:15:38;5.35;;;2.92;;
65189;SDS011;51777;53.570;9.984;2023-03-12T15:18:07;4.57;;;3.05;;
65189;SDS011;51777;53.570;9.984;2023-03-12T15:20:37;7.68;;;3.88;;
65189;SDS011;51777;53.570;9.984;2023-03-12T15:23:04;6.65;;;3.67;;
65189;SDS011;51777;53.570;9.984;2023-03-12T15:25:31;4.68;;;3.63;;
65189;SDS011;51777;53.570;9.984;2023-03-12T15:28:05;3.42;;;2.88;;
65189;SDS011;51777;53.570;9.984;2023-03-12T15:31:02;6.63;;;4.38;;
65189;SDS011;51777;53.570;9.984;2023-03-12T15:33:28;5.45;;;3.05;;
65189;SDS011;51777;53.570;9.984;2023-03-12T15:36:02;2.88;;;2.28;;
65189;SDS011;51777;53.570;9.984;2023-03-12T15:38:46;6.85;;;3.25;;
65189;SDS011;51777;53.570;9.984;2023-03-12T15:41:17;4.07;;;2.08;;
65189;SDS011;51777;53.570;9.984;2023-03-12T15:44:00;5.30;;;3.53;;
65189;SDS011;51777;53.570;9.984;2023-03-12T15:46:28;3.83;;;2.17;;
65189;SDS011;51777;53.570;9.984;2023-03-12T15:48:54;11.40;;;5.22;;
65189;SDS011;51777;53.570;9.984;2023-03-12T15:51:39;6.95;;;3.42;;
65189;SDS011;51777;53.570;9.984;2023-03-12T15:56:48;6.97;;;2.72;;
65189;SDS011;51777;53.570;9.984;2023-03-12T15:59:24;3.78;;;2.78;;
65189;SDS011;51777;53.570;9.984;2023-03-12T16:01:52;4.45;;;2.67;;
65189;SDS011;51777;53.570;9.984;2023-03-12T16:04:19;6.25;;;3.65;;
65189;SDS011;51777;53.570;9.984;2023-03-12T16:06:46;3.95;;;2.47;;
65189;SDS011;51777;53.570;9.984;2023-03-12T16:09:22;2.47;;;1.85;;
65189;SDS011;51777;53.570;9.984;2023-03-12T16:11:52;3.90;;;3.08;;
65189;SDS011;51777;53.570;9.984;2023-03-12T16:14:20;5.32;;;3.53;;
65189;SDS011;51777;53.570;9.984;2023-03-12T16:16:51;3.88;;;2.92;;
65189;SDS011;51777;53.570;9.984;2023-03-12T16:19:17;4.72;;;3.50;;
65189;SDS011;51777;53.570;9.984;2023-03-12T16:21:45;2.92;;;2.63;;
65189;SDS011;51777;53.570;9.984;2023-03-12T16:24:11;4.55;;;3.38;;
65189;SDS011;51777;53.570;9.984;2023-03-12T16:26:38;3.03;;;2.53;;
65189;SDS011;51777;53.570;9.984;2023-03-12T16:29:17;4.22;;;3.17;;
65189;SDS011;51777;53.570;9.984;2023-03-12T16:31:46;4.55;;;3.22;;
65189;SDS011;51777;53.570;9.984;2023-03-12T16:34:15;9.10;;;3.15;;
65189;SDS011;51777;53.570;9.984;2023-03-12T16:36:40;5.05;;;3.55;;
65189;SDS011;51777;53.570;9.984;2023-03-12T16:39:06;4.13;;;3.72;;
65189;SDS011;51777;53.570;9.984;2023-03-12T16:41:31;6.05;;;4.65;;
65189;SDS011;51777;53.570;9.984;2023-03-12T16:43:57;5.57;;;4.03;;
65189;SDS011;51777;53.570;9.984;2023-03-12T16:46:25;6.15;;;4.28;;
65189;SDS011;51777;53.570;9.984;2023-03-12T16:48:54;5.72;;;4.50;;
65189;SDS011;51777;53.570;9.984;2023-03-12T16:51:20;6.82;;;3.13;;
65189;SDS011;51777;53.570;9.984;2023-03-12T16:53:46;14.02;;;4.78;;
65189;SDS011;51777;53.570;9.984;2023-03-12T16:56:16;9.50;;;6.30;;
65189;SDS011;51777;53.570;9.984;2023-03-12T16:58:47;2.53;;;1.98;;
65189;SDS011;51777;53.570;9.984;2023-03-12T17:01:17;4.95;;;4.43;;
65189;SDS011;51777;53.570;9.984;2023-03-12T17:03:45;6.80;;;4.30;;
65189;SDS011;51777;53.570;9.984;2023-03-12T17:06:17;5.90;;;4.47;;